createdAt,value
2019-05-12T00:00:15.217Z,2.60
2019-05-12T00:01:15.201Z,2.90
2019-05-12T00:02:15.203Z,3.00
2019-05-12T00:03:15.235Z,2.80
2019-05-12T00:04:15.184Z,3.30
2019-05-12T00:05:15.157Z,2.70
2019-05-12T00:06:17.517Z,3.00
2019-05-12T00:07:15.130Z,2.80
2019-05-12T00:08:15.121Z,2.70
2019-05-12T00:09:15.126Z,2.60
2019-05-12T00:10:15.094Z,2.80
2019-05-12T00:11:15.088Z,3.00
2019-05-12T00:12:15.079Z,2.90
2019-05-12T00:13:15.084Z,2.80
2019-05-12T00:14:15.052Z,3.20
2019-05-12T00:15:15.108Z,3.30
2019-05-12T00:16:15.036Z,3.00
2019-05-12T00:17:15.025Z,3.00
2019-05-12T00:18:15.030Z,3.10
2019-05-12T00:19:15.011Z,3.00
2019-05-12T00:20:15.021Z,3.40
2019-05-12T00:21:14.988Z,2.80
2019-05-12T00:22:14.977Z,2.60
2019-05-12T00:23:25.000Z,2.90
2019-05-12T00:24:15.940Z,2.90
2019-05-12T00:25:14.931Z,2.80
2019-05-12T00:26:14.915Z,2.80
2019-05-12T00:27:14.941Z,2.80
2019-05-12T00:28:14.900Z,3.00
2019-05-12T00:29:14.918Z,3.20
2019-05-12T00:30:14.889Z,2.90
2019-05-12T00:31:14.860Z,2.90
2019-05-12T00:32:14.850Z,3.10
2019-05-12T00:33:14.873Z,2.90
2019-05-12T00:34:14.834Z,3.20
2019-05-12T00:35:14.812Z,3.00
2019-05-12T00:36:14.805Z,2.90
2019-05-12T00:37:14.795Z,3.00
2019-05-12T00:38:14.790Z,3.20
2019-05-12T00:39:14.785Z,2.90
2019-05-12T00:40:14.762Z,3.10
2019-05-12T00:41:14.757Z,3.00
2019-05-12T00:42:14.735Z,3.10
2019-05-12T00:43:14.754Z,3.30
2019-05-12T00:44:14.716Z,3.30
2019-05-12T00:45:14.716Z,3.40
2019-05-12T00:46:14.691Z,3.10
2019-05-12T00:47:14.682Z,3.00
2019-05-12T00:48:14.680Z,2.80
2019-05-12T00:49:14.684Z,3.00
2019-05-12T00:50:14.648Z,3.30
2019-05-12T00:51:14.677Z,3.20
2019-05-12T00:52:14.654Z,3.10
2019-05-12T00:53:14.635Z,2.90
2019-05-12T00:54:14.619Z,3.20
2019-05-12T00:55:14.604Z,3.00
2019-05-12T00:56:14.583Z,3.30
2019-05-12T00:57:14.599Z,3.00
2019-05-12T00:58:14.568Z,3.00
2019-05-12T00:59:14.559Z,3.00
2019-05-12T01:00:14.531Z,3.20
2019-05-12T01:01:14.536Z,3.00
2019-05-12T01:02:14.537Z,2.90
2019-05-12T01:03:14.535Z,3.00
2019-05-12T01:04:14.497Z,2.90
2019-05-12T01:05:14.476Z,2.80
2019-05-12T01:06:14.470Z,3.00
2019-05-12T01:07:14.468Z,3.10
2019-05-12T01:08:14.471Z,3.10
2019-05-12T01:09:14.456Z,3.20
2019-05-12T01:10:14.428Z,2.70
2019-05-12T01:11:14.417Z,3.40
2019-05-12T01:12:14.432Z,3.50
2019-05-12T01:13:14.389Z,3.50
2019-05-12T01:14:14.377Z,3.20
2019-05-12T01:15:14.409Z,3.70
2019-05-12T01:16:14.367Z,3.20
2019-05-12T01:17:14.348Z,3.80
2019-05-12T01:18:14.350Z,3.50
2019-05-12T01:19:14.325Z,3.60
2019-05-12T01:20:14.306Z,3.30
2019-05-12T01:21:14.329Z,3.40
2019-05-12T01:22:14.288Z,3.40
2019-05-12T01:23:14.289Z,3.20
2019-05-12T01:24:14.272Z,3.80
2019-05-12T01:25:14.252Z,3.30
2019-05-12T01:26:14.280Z,3.90
2019-05-12T01:27:14.252Z,3.50
2019-05-12T01:28:14.236Z,3.40
2019-05-12T01:29:14.212Z,3.40
2019-05-12T01:30:14.198Z,3.80
2019-05-12T01:31:14.183Z,3.90
2019-05-12T01:32:14.196Z,3.60
2019-05-12T01:33:14.198Z,3.50
2019-05-12T01:34:14.157Z,3.20
2019-05-12T01:35:14.150Z,3.80
2019-05-12T01:36:14.145Z,3.60
2019-05-12T01:37:14.136Z,3.40
2019-05-12T01:38:14.119Z,3.60
2019-05-12T01:39:14.170Z,3.30
2019-05-12T01:40:14.092Z,3.80
2019-05-12T01:41:14.072Z,3.40
2019-05-12T01:42:14.074Z,3.30
2019-05-12T01:43:14.092Z,3.10
2019-05-12T01:44:14.040Z,3.40
2019-05-12T01:45:14.040Z,3.60
2019-05-12T01:46:14.046Z,3.40
2019-05-12T01:47:14.011Z,4.30
2019-05-12T01:48:14.005Z,3.70
2019-05-12T01:49:13.997Z,3.90
2019-05-12T01:50:13.970Z,3.60
2019-05-12T01:51:13.977Z,3.70
2019-05-12T01:52:13.958Z,3.60
2019-05-12T01:53:13.956Z,3.30
2019-05-12T01:54:15.196Z,3.40
2019-05-12T01:55:13.945Z,3.80
2019-05-12T01:56:13.922Z,3.90
2019-05-12T01:57:13.936Z,3.10
2019-05-12T01:58:13.908Z,4.00
2019-05-12T01:59:13.876Z,3.50
2019-05-12T02:00:13.871Z,3.70
2019-05-12T02:01:13.858Z,3.30
2019-05-12T02:02:13.839Z,3.90
2019-05-12T02:03:13.873Z,3.80
2019-05-12T02:04:13.830Z,3.70
2019-05-12T02:05:13.816Z,3.60
2019-05-12T02:06:13.793Z,3.60
2019-05-12T02:07:13.789Z,3.70
2019-05-12T02:08:13.771Z,3.50
2019-05-12T02:09:13.823Z,3.80
2019-05-12T02:10:13.757Z,3.60
2019-05-12T02:11:13.736Z,3.40
2019-05-12T02:12:13.736Z,3.70
2019-05-12T02:13:13.724Z,3.50
2019-05-12T02:14:13.704Z,3.50
2019-05-12T02:15:13.722Z,3.70
2019-05-12T02:16:13.712Z,3.80
2019-05-12T02:17:13.705Z,3.70
2019-05-12T02:18:13.662Z,3.40
2019-05-12T02:19:13.672Z,4.00
2019-05-12T02:20:13.661Z,3.70
2019-05-12T02:21:13.666Z,3.90
2019-05-12T02:22:13.647Z,3.40
2019-05-12T02:23:13.627Z,3.60
2019-05-12T02:24:26.357Z,3.70
2019-05-12T02:25:14.610Z,3.70
2019-05-12T02:26:13.580Z,3.80
2019-05-12T02:27:13.584Z,3.30
2019-05-12T02:28:13.555Z,3.80
2019-05-12T02:29:13.534Z,3.80
2019-05-12T02:30:13.538Z,3.70
2019-05-12T02:31:13.518Z,3.80
2019-05-12T02:32:13.511Z,3.60
2019-05-12T02:33:16.040Z,3.80
2019-05-12T02:34:15.698Z,3.50
2019-05-12T02:35:16.145Z,4.20
2019-05-12T02:36:15.069Z,3.80
2019-05-12T02:37:15.381Z,3.90
2019-05-12T02:38:14.442Z,3.70
2019-05-12T02:39:14.851Z,4.30
2019-05-12T02:40:15.097Z,4.10
2019-05-12T02:41:15.528Z,4.10
2019-05-12T02:42:15.614Z,3.60
2019-05-12T02:43:15.478Z,4.20
2019-05-12T02:44:14.958Z,4.00
2019-05-12T02:45:15.416Z,4.00
2019-05-12T02:46:15.555Z,3.50
2019-05-12T02:47:15.979Z,3.80
2019-05-12T02:48:14.391Z,4.00
2019-05-12T02:49:15.678Z,4.10
2019-05-12T02:50:14.558Z,4.20
2019-05-12T02:51:15.648Z,4.10
2019-05-12T02:52:15.436Z,4.30
2019-05-12T02:53:14.570Z,4.10
2019-05-12T02:54:14.357Z,4.00
2019-05-12T02:55:15.002Z,3.80
2019-05-12T02:56:15.113Z,4.10
2019-05-12T02:57:14.300Z,4.20
2019-05-12T02:58:15.207Z,4.10
2019-05-12T02:59:15.410Z,4.00
2019-05-12T03:00:15.844Z,4.20
2019-05-12T03:01:15.270Z,4.40
2019-05-12T03:02:14.201Z,4.60
2019-05-12T03:03:14.715Z,4.10
2019-05-12T03:04:14.561Z,4.50
2019-05-12T03:05:14.826Z,3.90
2019-05-12T03:06:15.171Z,4.60
2019-05-12T03:07:15.260Z,4.40
2019-05-12T03:08:15.322Z,4.40
2019-05-12T03:09:15.139Z,4.60
2019-05-12T03:10:14.533Z,3.90
2019-05-12T03:11:14.758Z,4.30
2019-05-12T03:12:14.478Z,4.50
2019-05-12T03:13:14.886Z,4.10
2019-05-12T03:14:15.722Z,4.10
2019-05-12T03:15:15.257Z,4.00
2019-05-12T03:16:14.937Z,4.20
2019-05-12T03:17:15.323Z,4.60
2019-05-12T03:18:14.633Z,4.10
2019-05-12T03:19:14.978Z,3.90
2019-05-12T03:20:15.365Z,4.20
2019-05-12T03:21:15.197Z,4.20
2019-05-12T03:22:14.205Z,4.30
2019-05-12T03:23:18.505Z,3.80
2019-05-12T03:24:17.420Z,4.40
2019-05-12T03:25:20.741Z,4.30
2019-05-12T03:26:15.295Z,4.40
2019-05-12T03:27:14.637Z,4.60
2019-05-12T03:28:15.940Z,4.40
2019-05-12T03:29:14.776Z,4.40
2019-05-12T03:30:18.894Z,4.40
2019-05-12T03:31:22.098Z,4.50
2019-05-12T03:32:17.635Z,4.60
2019-05-12T03:33:18.731Z,4.50
2019-05-12T03:34:19.453Z,4.50
2019-05-12T03:35:17.649Z,4.30
2019-05-12T03:36:18.147Z,4.80
2019-05-12T03:37:17.995Z,4.90
2019-05-12T03:38:14.909Z,4.80
2019-05-12T03:39:14.967Z,4.70
2019-05-12T03:40:14.450Z,4.90
2019-05-12T03:41:14.676Z,4.70
2019-05-12T03:42:14.554Z,5.00
2019-05-12T03:43:14.532Z,4.40
2019-05-12T03:44:15.116Z,4.70
2019-05-12T03:45:15.002Z,4.70
2019-05-12T03:46:15.152Z,4.60
2019-05-12T03:47:14.400Z,4.60
2019-05-12T03:48:14.881Z,5.10
2019-05-12T03:49:15.343Z,5.20
2019-05-12T03:50:14.827Z,5.40
2019-05-12T03:51:15.401Z,5.40
2019-05-12T03:52:15.292Z,5.10
2019-05-12T03:53:15.701Z,5.00
2019-05-12T03:54:15.220Z,4.90
2019-05-12T03:55:30.400Z,5.00
2019-05-12T03:56:15.070Z,5.00
2019-05-12T03:57:15.045Z,5.10
2019-05-12T03:58:15.296Z,4.90
2019-05-12T03:59:14.986Z,4.40
2019-05-12T04:00:15.651Z,5.30
2019-05-12T04:01:14.965Z,5.50
2019-05-12T04:02:15.077Z,5.40
2019-05-12T04:03:15.368Z,5.30
2019-05-12T04:04:15.303Z,4.70
2019-05-12T04:05:15.555Z,5.10
2019-05-12T04:06:15.514Z,5.30
2019-05-12T04:07:15.057Z,5.10
2019-05-12T04:08:15.408Z,4.90
2019-05-12T04:09:15.181Z,5.50
2019-05-12T04:10:14.780Z,5.80
2019-05-12T04:11:14.591Z,5.40
2019-05-12T04:12:14.787Z,5.30
2019-05-12T04:13:15.082Z,5.60
2019-05-12T04:14:14.730Z,6.10
2019-05-12T04:15:15.091Z,5.30
2019-05-12T04:16:12.371Z,5.60
2019-05-12T04:17:14.925Z,5.10
2019-05-12T04:18:15.517Z,6.00
2019-05-12T04:19:14.666Z,5.10
2019-05-12T04:20:15.228Z,5.50
2019-05-12T04:21:15.275Z,5.70
2019-05-12T04:22:15.166Z,5.10
2019-05-12T04:23:15.023Z,5.60
2019-05-12T04:24:14.276Z,4.80
2019-05-12T04:25:14.531Z,5.90
2019-05-12T04:26:16.726Z,6.00
2019-05-12T04:27:15.001Z,6.60
2019-05-12T04:28:14.781Z,6.00
2019-05-12T04:29:15.164Z,6.20
2019-05-12T04:30:14.444Z,6.30
2019-05-12T04:31:15.257Z,5.30
2019-05-12T04:32:14.357Z,6.00
2019-05-12T04:33:15.177Z,5.80
2019-05-12T04:34:15.693Z,5.50
2019-05-12T04:35:14.923Z,5.40
2019-05-12T04:36:14.899Z,5.70
2019-05-12T04:37:14.663Z,6.00
2019-05-12T04:38:14.816Z,5.60
2019-05-12T04:39:14.774Z,5.70
2019-05-12T04:40:14.815Z,5.90
2019-05-12T04:41:14.593Z,5.80
2019-05-12T04:42:14.840Z,5.90
2019-05-12T04:43:14.646Z,5.80
2019-05-12T04:44:15.119Z,6.00
2019-05-12T04:45:15.257Z,5.50
2019-05-12T04:46:14.476Z,6.20
2019-05-12T04:47:14.611Z,5.40
2019-05-12T04:48:15.014Z,5.80
2019-05-12T04:49:15.485Z,5.80
2019-05-12T04:50:15.269Z,5.80
2019-05-12T04:51:15.166Z,5.70
2019-05-12T04:52:15.321Z,6.40
2019-05-12T04:53:14.472Z,5.60
2019-05-12T04:54:14.903Z,5.70
2019-05-12T04:55:14.726Z,6.00
2019-05-12T04:56:19.896Z,5.70
2019-05-12T04:57:14.939Z,5.90
2019-05-12T04:58:15.218Z,6.60
2019-05-12T04:59:15.314Z,6.30
2019-05-12T05:00:15.376Z,6.40
2019-05-12T05:01:15.198Z,6.00
2019-05-12T05:02:15.050Z,5.80
2019-05-12T05:03:14.172Z,6.30
2019-05-12T05:04:11.836Z,5.90
2019-05-12T05:05:14.476Z,6.10
2019-05-12T05:06:14.575Z,6.10
2019-05-12T05:07:14.830Z,5.80
2019-05-12T05:08:14.508Z,6.30
2019-05-12T05:09:14.413Z,6.20
2019-05-12T05:10:14.260Z,6.10
2019-05-12T05:11:14.523Z,6.40
2019-05-12T05:12:13.973Z,6.40
2019-05-12T05:13:11.741Z,5.80
2019-05-12T05:14:14.330Z,6.20
2019-05-12T05:15:14.393Z,5.70
2019-05-12T05:16:14.250Z,5.90
2019-05-12T05:17:11.709Z,6.20
2019-05-12T05:18:13.361Z,5.70
2019-05-12T05:19:13.302Z,6.10
2019-05-12T05:20:13.622Z,6.40
2019-05-12T05:21:13.793Z,5.90
2019-05-12T05:22:13.589Z,6.40
2019-05-12T05:23:13.903Z,5.90
2019-05-12T05:24:14.032Z,5.90
2019-05-12T05:25:11.621Z,6.10
2019-05-12T05:26:22.182Z,6.40
2019-05-12T05:27:13.306Z,6.70
2019-05-12T05:28:11.557Z,6.50
2019-05-12T05:29:13.519Z,6.60
2019-05-12T05:30:13.620Z,6.30
2019-05-12T05:31:13.895Z,6.30
2019-05-12T05:32:13.932Z,6.10
2019-05-12T05:33:11.515Z,6.40
2019-05-12T05:34:11.514Z,6.50
2019-05-12T05:35:13.308Z,5.50
2019-05-12T05:36:15.261Z,6.00
2019-05-12T05:37:14.613Z,6.30
2019-05-12T05:38:19.198Z,6.20
2019-05-12T05:39:13.898Z,6.40
2019-05-12T05:40:13.867Z,6.40
2019-05-12T05:41:13.477Z,6.40
2019-05-12T05:42:13.377Z,6.10
2019-05-12T05:43:12.920Z,6.20
2019-05-12T05:44:13.877Z,6.10
2019-05-12T05:45:19.671Z,5.90
2019-05-12T05:46:13.824Z,6.10
2019-05-12T05:47:13.736Z,5.90
2019-05-12T05:48:13.422Z,6.20
2019-05-12T05:49:13.339Z,5.50
2019-05-12T05:50:13.385Z,6.00
2019-05-12T05:51:13.460Z,6.60
2019-05-12T05:52:13.678Z,6.10
2019-05-12T05:53:17.524Z,5.90
2019-05-12T05:54:13.761Z,5.80
2019-05-12T05:55:18.179Z,6.10
2019-05-12T05:56:14.235Z,6.10
2019-05-12T05:57:11.238Z,6.20
2019-05-12T05:58:11.226Z,5.80
2019-05-12T05:59:11.228Z,6.20
2019-05-12T06:00:17.462Z,6.10
2019-05-12T06:01:13.689Z,5.60
2019-05-12T06:02:13.776Z,5.80
2019-05-12T06:03:14.909Z,5.50
2019-05-12T06:04:14.071Z,5.90
2019-05-12T06:05:11.145Z,5.00
2019-05-12T06:06:14.634Z,5.90
2019-05-12T06:07:11.128Z,5.70
2019-05-12T06:08:16.576Z,5.90
2019-05-12T06:09:14.110Z,5.30
2019-05-12T06:10:11.094Z,5.70
2019-05-12T06:11:14.706Z,5.50
2019-05-12T06:12:13.418Z,5.30
2019-05-12T06:13:11.065Z,5.40
2019-05-12T06:14:12.792Z,5.00
2019-05-12T06:15:13.374Z,5.50
2019-05-12T06:16:19.843Z,5.20
2019-05-12T06:17:14.475Z,5.90
2019-05-12T06:18:13.415Z,5.30
2019-05-12T06:19:10.990Z,5.90
2019-05-12T06:20:13.298Z,5.00
2019-05-12T06:21:10.977Z,4.90
2019-05-12T06:22:15.390Z,4.90
2019-05-12T06:23:14.513Z,5.30
2019-05-12T06:24:15.655Z,5.20
2019-05-12T06:25:16.061Z,4.80
2019-05-12T06:26:10.918Z,4.80
2019-05-12T06:27:19.367Z,5.00
2019-05-12T06:28:11.897Z,4.90
2019-05-12T06:29:11.304Z,5.80
2019-05-12T06:30:14.567Z,5.30
2019-05-12T06:31:10.868Z,5.00
2019-05-12T06:32:11.122Z,5.00
2019-05-12T06:33:10.844Z,4.70
2019-05-12T06:34:15.329Z,4.60
2019-05-12T06:35:11.846Z,4.90
2019-05-12T06:36:14.048Z,4.70
2019-05-12T06:37:16.584Z,4.60
2019-05-12T06:38:13.574Z,4.90
2019-05-12T06:39:19.113Z,4.60
2019-05-12T06:40:14.102Z,4.60
2019-05-12T06:41:12.414Z,4.70
2019-05-12T06:42:16.052Z,4.50
2019-05-12T06:43:13.884Z,4.60
2019-05-12T06:44:14.855Z,4.10
2019-05-12T06:45:13.962Z,4.80
2019-05-12T06:46:11.784Z,4.40
2019-05-12T06:47:11.717Z,4.30
2019-05-12T06:48:10.683Z,4.00
2019-05-12T06:49:13.519Z,4.00
2019-05-12T06:50:14.312Z,4.30
2019-05-12T06:51:16.968Z,4.20
2019-05-12T06:52:11.637Z,3.90
2019-05-12T06:53:10.641Z,4.10
2019-05-12T06:54:12.217Z,4.50
2019-05-12T06:55:10.603Z,3.80
2019-05-12T06:56:15.422Z,4.10
2019-05-12T06:57:22.232Z,3.80
2019-05-12T06:58:13.774Z,3.80
2019-05-12T06:59:12.374Z,4.60
2019-05-12T07:00:10.554Z,4.00
2019-05-12T07:01:16.714Z,3.60
2019-05-12T07:02:13.715Z,3.80
2019-05-12T07:03:10.504Z,4.10
2019-05-12T07:04:10.515Z,4.00
2019-05-12T07:05:10.482Z,3.80
2019-05-12T07:06:18.006Z,3.90
2019-05-12T07:07:11.457Z,3.70
2019-05-12T07:08:10.452Z,3.70
2019-05-12T07:09:15.539Z,3.30
2019-05-12T07:10:26.667Z,3.60
2019-05-12T07:11:14.098Z,3.50
2019-05-12T07:12:10.405Z,3.30
2019-05-12T07:13:16.586Z,3.90
2019-05-12T07:14:21.419Z,3.40
2019-05-12T07:15:11.414Z,3.50
2019-05-12T07:16:15.440Z,3.30
2019-05-12T07:17:11.344Z,3.50
2019-05-12T07:18:10.433Z,3.50
2019-05-12T07:19:17.403Z,3.50
2019-05-12T07:20:11.305Z,3.30
2019-05-12T07:21:14.694Z,2.60
2019-05-12T07:22:19.924Z,2.60
2019-05-12T07:23:11.267Z,2.60
2019-05-12T07:24:11.210Z,2.30
2019-05-12T07:25:10.250Z,2.50
2019-05-12T07:26:17.541Z,2.40
2019-05-12T07:27:11.238Z,2.40
2019-05-12T07:28:10.250Z,2.00
2019-05-12T07:29:10.225Z,2.40
2019-05-12T07:30:10.193Z,2.40
2019-05-12T07:31:10.178Z,2.30
2019-05-12T07:32:16.416Z,2.10
2019-05-12T07:33:11.178Z,1.90
2019-05-12T07:34:10.165Z,2.00
2019-05-12T07:35:10.137Z,1.70
2019-05-12T07:36:10.128Z,1.80
2019-05-12T07:37:10.112Z,1.80
2019-05-12T07:38:15.154Z,2.00
2019-05-12T07:39:13.403Z,2.20
2019-05-12T07:40:10.087Z,2.30
2019-05-12T07:41:10.937Z,2.20
2019-05-12T07:42:10.060Z,2.10
2019-05-12T07:43:15.449Z,1.70
2019-05-12T07:44:11.041Z,1.70
2019-05-12T07:45:11.494Z,2.20
2019-05-12T07:46:13.203Z,2.00
2019-05-12T07:47:10.005Z,2.20
2019-05-12T07:48:10.448Z,2.20
2019-05-12T07:49:09.991Z,2.10
2019-05-12T07:50:15.481Z,2.20
2019-05-12T07:51:10.996Z,2.00
2019-05-12T07:52:09.963Z,2.20
2019-05-12T07:53:09.954Z,2.30
2019-05-12T07:54:09.924Z,2.40
2019-05-12T07:55:09.913Z,2.20
2019-05-12T07:56:09.927Z,2.60
2019-05-12T07:57:12.573Z,2.20
2019-05-12T07:58:15.524Z,2.10
2019-05-12T07:59:13.445Z,2.30
2019-05-12T08:00:11.362Z,2.20
2019-05-12T08:01:10.854Z,2.10
2019-05-12T08:02:09.835Z,2.20
2019-05-12T08:03:16.267Z,2.10
2019-05-12T08:04:10.820Z,1.90
2019-05-12T08:05:11.108Z,2.10
2019-05-12T08:06:10.800Z,1.90
2019-05-12T08:07:09.786Z,1.80
2019-05-12T08:08:10.994Z,1.90
2019-05-12T08:09:09.795Z,2.30
2019-05-12T08:10:15.795Z,2.30
2019-05-12T08:11:10.735Z,2.10
2019-05-12T08:12:15.266Z,2.00
2019-05-12T08:13:10.755Z,1.90
2019-05-12T08:14:13.750Z,2.00
2019-05-12T08:15:10.727Z,1.90
2019-05-12T08:16:09.684Z,2.00
2019-05-12T08:17:11.904Z,2.30
2019-05-12T08:18:09.660Z,2.00
2019-05-12T08:19:14.949Z,1.70
2019-05-12T08:20:10.653Z,1.60
2019-05-12T08:21:09.675Z,1.60
2019-05-12T08:22:09.613Z,1.50
2019-05-12T08:23:10.668Z,1.60
2019-05-12T08:24:09.607Z,1.80
2019-05-12T08:25:09.580Z,1.60
2019-05-12T08:26:13.563Z,1.70
2019-05-12T08:27:10.579Z,1.80
2019-05-12T08:28:15.406Z,1.50
2019-05-12T08:29:15.836Z,1.60
2019-05-12T08:30:10.533Z,1.40
2019-05-12T08:31:09.516Z,1.30
2019-05-12T08:32:10.093Z,1.40
2019-05-12T08:33:10.516Z,1.30
2019-05-12T08:34:09.499Z,1.40
2019-05-12T08:35:09.475Z,1.50
2019-05-12T08:36:11.666Z,1.30
2019-05-12T08:37:09.460Z,1.30
2019-05-12T08:38:09.439Z,1.40
2019-05-12T08:39:15.511Z,1.40
2019-05-12T08:40:10.411Z,1.30
2019-05-12T08:41:09.408Z,1.40
2019-05-12T08:42:09.396Z,1.30
2019-05-12T08:43:10.713Z,1.60
2019-05-12T08:44:09.375Z,1.40
2019-05-12T08:45:15.101Z,1.50
2019-05-12T08:46:12.817Z,1.40
2019-05-12T08:47:12.138Z,1.30
2019-05-12T08:48:16.192Z,1.40
2019-05-12T08:49:10.312Z,1.20
2019-05-12T08:50:09.305Z,1.50
2019-05-12T08:51:14.335Z,1.50
2019-05-12T08:52:10.301Z,1.40
2019-05-12T08:53:13.964Z,1.30
2019-05-12T08:54:10.263Z,1.30
2019-05-12T08:55:09.253Z,1.20
2019-05-12T08:56:13.372Z,1.40
2019-05-12T08:57:10.247Z,1.40
2019-05-12T08:58:09.229Z,1.30
2019-05-12T08:59:09.831Z,1.50
2019-05-12T09:00:10.193Z,1.10
2019-05-12T09:01:09.184Z,1.40
2019-05-12T09:02:10.697Z,1.60
2019-05-12T09:03:09.191Z,1.40
2019-05-12T09:04:14.678Z,1.40
2019-05-12T09:05:10.143Z,1.40
2019-05-12T09:06:14.387Z,1.70
2019-05-12T09:07:10.121Z,1.20
2019-05-12T09:08:09.111Z,1.30
2019-05-12T09:09:09.120Z,1.50
2019-05-12T09:10:09.091Z,1.70
2019-05-12T09:11:09.074Z,1.30
2019-05-12T09:12:09.081Z,1.40
2019-05-12T09:13:09.058Z,1.20
2019-05-12T09:14:09.050Z,1.50
2019-05-12T09:15:09.044Z,1.30
2019-05-12T09:16:09.774Z,1.30
2019-05-12T09:17:09.012Z,1.40
2019-05-12T09:18:09.000Z,1.20
2019-05-12T09:19:10.299Z,1.20
2019-05-12T09:20:10.002Z,1.20
2019-05-12T09:21:08.971Z,1.30
2019-05-12T09:22:16.413Z,1.20
2019-05-12T09:23:09.942Z,1.40
2019-05-12T09:24:13.669Z,1.50
2019-05-12T09:25:09.923Z,1.40
2019-05-12T09:26:08.970Z,1.30
2019-05-12T09:27:09.089Z,1.40
2019-05-12T09:28:08.888Z,1.50
2019-05-12T09:29:08.895Z,1.40
2019-05-12T09:30:09.851Z,1.40
2019-05-12T09:31:08.870Z,1.40
2019-05-12T09:32:09.724Z,1.30
2019-05-12T09:33:08.839Z,1.60
2019-05-12T09:34:11.517Z,1.50
2019-05-12T09:35:08.816Z,1.20
2019-05-12T09:36:11.279Z,1.50
2019-05-12T09:37:09.815Z,1.30
2019-05-12T09:38:11.375Z,1.50
2019-05-12T09:39:09.801Z,1.60
2019-05-12T09:40:08.766Z,2.00
2019-05-12T09:41:08.756Z,1.50
2019-05-12T09:42:08.751Z,1.30
2019-05-12T09:43:10.695Z,1.30
2019-05-12T09:44:08.719Z,1.50
2019-05-12T09:45:10.494Z,1.20
2019-05-12T09:46:08.704Z,1.40
2019-05-12T09:47:21.942Z,1.50
2019-05-12T09:48:09.711Z,1.40
2019-05-12T09:49:08.674Z,1.40
2019-05-12T09:50:09.543Z,1.70
2019-05-12T09:51:09.653Z,1.60
2019-05-12T09:52:13.836Z,1.40
2019-05-12T09:53:11.415Z,1.50
2019-05-12T09:54:08.639Z,1.20
2019-05-12T09:55:08.613Z,1.40
2019-05-12T09:56:08.598Z,1.20
2019-05-12T09:57:08.599Z,1.30
2019-05-12T09:58:14.121Z,1.40
2019-05-12T09:59:17.927Z,1.30
2019-05-12T10:00:09.557Z,1.60
2019-05-12T10:01:08.558Z,1.40
2019-05-12T10:02:10.354Z,1.40
2019-05-12T10:03:09.530Z,1.40
2019-05-12T10:04:10.289Z,1.40
2019-05-12T10:05:09.519Z,1.30
2019-05-12T10:06:11.380Z,1.30
2019-05-12T10:07:09.491Z,1.50
2019-05-12T10:08:08.484Z,1.40
2019-05-12T10:09:08.780Z,1.60
2019-05-12T10:10:09.453Z,1.50
2019-05-12T10:11:10.408Z,1.50
2019-05-12T10:12:09.429Z,1.10
2019-05-12T10:13:08.425Z,1.20
2019-05-12T10:14:10.777Z,1.20
2019-05-12T10:15:08.398Z,1.30
2019-05-12T10:16:08.955Z,1.30
2019-05-12T10:17:08.403Z,1.40
2019-05-12T10:18:11.118Z,1.40
2019-05-12T10:19:08.354Z,1.20
2019-05-12T10:20:08.350Z,1.30
2019-05-12T10:21:10.146Z,1.10
2019-05-12T10:22:09.341Z,1.20
2019-05-12T10:23:10.213Z,1.40
2019-05-12T10:24:09.302Z,1.30
2019-05-12T10:25:08.307Z,1.20
2019-05-12T10:26:11.573Z,1.30
2019-05-12T10:27:08.271Z,1.40
2019-05-12T10:28:12.855Z,1.30
2019-05-12T10:29:17.469Z,1.30
2019-05-12T10:30:12.268Z,1.20
2019-05-12T10:31:09.234Z,1.30
2019-05-12T10:32:10.382Z,1.10
2019-05-12T10:33:08.205Z,1.10
2019-05-12T10:34:08.227Z,1.20
2019-05-12T10:35:12.616Z,1.00
2019-05-12T10:36:09.180Z,1.00
2019-05-12T10:37:08.162Z,1.20
2019-05-12T10:38:10.745Z,1.30
2019-05-12T10:39:08.155Z,1.20
2019-05-12T10:40:08.154Z,1.20
2019-05-12T10:41:08.120Z,1.30
2019-05-12T10:42:08.123Z,1.30
2019-05-12T10:43:08.116Z,1.30
2019-05-12T10:44:08.106Z,1.40
2019-05-12T10:45:10.799Z,1.10
2019-05-12T10:46:09.092Z,1.20
2019-05-12T10:47:08.060Z,1.30
2019-05-12T10:48:08.054Z,1.40
2019-05-12T10:49:08.047Z,1.30
2019-05-12T10:50:08.032Z,1.40
2019-05-12T10:51:08.045Z,1.40
2019-05-12T10:52:08.038Z,1.30
2019-05-12T10:53:09.795Z,1.30
2019-05-12T10:54:13.197Z,1.50
2019-05-12T10:55:08.977Z,1.40
2019-05-12T10:56:07.972Z,1.20
2019-05-12T10:57:07.964Z,1.30
2019-05-12T10:58:07.975Z,1.40
2019-05-12T10:59:07.941Z,1.50
2019-05-12T11:00:07.932Z,1.20
2019-05-12T11:01:08.699Z,1.10
2019-05-12T11:02:07.917Z,1.30
2019-05-12T11:03:12.162Z,1.30
2019-05-12T11:04:08.915Z,1.20
2019-05-12T11:05:14.662Z,1.40
2019-05-12T11:06:08.866Z,1.50
2019-05-12T11:07:07.861Z,1.20
2019-05-12T11:08:11.123Z,1.70
2019-05-12T11:09:07.833Z,1.40
2019-05-12T11:10:15.375Z,1.20
2019-05-12T11:11:08.814Z,1.10
2019-05-12T11:12:07.803Z,1.20
2019-05-12T11:13:09.847Z,1.30
2019-05-12T11:14:07.780Z,1.30
2019-05-12T11:15:08.539Z,1.40
2019-05-12T11:16:07.794Z,1.20
2019-05-12T11:17:09.478Z,1.20
2019-05-12T11:18:07.740Z,1.30
2019-05-12T11:19:10.534Z,1.40
2019-05-12T11:20:07.718Z,1.20
2019-05-12T11:21:07.712Z,1.20
2019-05-12T11:22:07.719Z,1.30
2019-05-12T11:23:07.690Z,1.30
2019-05-12T11:24:07.690Z,1.00
2019-05-12T11:25:07.679Z,1.30
2019-05-12T11:26:07.668Z,1.40
2019-05-12T11:27:07.644Z,1.40
2019-05-12T11:28:07.670Z,1.30
2019-05-12T11:29:07.631Z,1.20
2019-05-12T11:30:07.611Z,1.10
2019-05-12T11:31:07.617Z,1.10
2019-05-12T11:32:07.598Z,1.40
2019-05-12T11:33:07.591Z,1.30
2019-05-12T11:34:07.597Z,1.10
2019-05-12T11:35:07.557Z,1.30
2019-05-12T11:36:07.546Z,1.40
2019-05-12T11:37:07.545Z,1.60
2019-05-12T11:38:07.537Z,1.50
2019-05-12T11:39:07.521Z,1.70
2019-05-12T11:40:07.526Z,1.30
2019-05-12T11:41:10.117Z,1.60
2019-05-12T11:42:08.486Z,1.70
2019-05-12T11:43:07.489Z,1.30
2019-05-12T11:44:07.484Z,1.70
2019-05-12T11:45:07.464Z,1.20
2019-05-12T11:46:07.465Z,1.30
2019-05-12T11:47:07.432Z,1.20
2019-05-12T11:48:10.122Z,1.20
2019-05-12T11:49:09.520Z,1.20
2019-05-12T11:50:09.698Z,1.10
2019-05-12T11:51:07.389Z,1.40
2019-05-12T11:52:13.306Z,1.20
2019-05-12T11:53:08.361Z,1.20
2019-05-12T11:54:09.064Z,1.30
2019-05-12T11:55:07.342Z,1.30
2019-05-12T11:56:07.957Z,1.30
2019-05-12T11:57:07.325Z,1.20
2019-05-12T11:58:11.485Z,1.10
2019-05-12T11:59:07.303Z,1.20
2019-05-12T12:00:07.286Z,1.30
2019-05-12T12:01:08.394Z,1.10
2019-05-12T12:02:07.266Z,1.10
2019-05-12T12:03:12.570Z,1.30
2019-05-12T12:04:08.267Z,1.30
2019-05-12T12:05:07.259Z,1.30
2019-05-12T12:06:07.216Z,1.20
2019-05-12T12:07:07.210Z,1.20
2019-05-12T12:08:07.227Z,1.30
2019-05-12T12:09:09.109Z,1.30
2019-05-12T12:10:08.193Z,1.20
2019-05-12T12:11:10.498Z,1.80
2019-05-12T12:12:08.238Z,1.50
2019-05-12T12:13:07.152Z,1.30
2019-05-12T12:14:10.503Z,1.40
2019-05-12T12:15:07.119Z,1.10
2019-05-12T12:16:11.166Z,1.30
2019-05-12T12:17:07.099Z,1.40
2019-05-12T12:18:13.248Z,1.50
2019-05-12T12:19:08.085Z,1.30
2019-05-12T12:20:07.063Z,1.10
2019-05-12T12:21:07.898Z,1.10
2019-05-12T12:22:07.065Z,1.40
2019-05-12T12:23:11.017Z,1.10
2019-05-12T12:24:07.063Z,1.30
2019-05-12T12:25:10.692Z,1.30
2019-05-12T12:26:07.994Z,1.90
2019-05-12T12:27:06.984Z,1.30
2019-05-12T12:28:07.074Z,1.20
2019-05-12T12:29:06.963Z,1.40
2019-05-12T12:30:16.793Z,1.70
2019-05-12T12:31:07.973Z,1.50
2019-05-12T12:32:09.958Z,1.40
2019-05-12T12:33:07.940Z,1.60
2019-05-12T12:34:06.925Z,1.30
2019-05-12T12:35:10.994Z,1.30
2019-05-12T12:36:07.887Z,1.30
2019-05-12T12:37:06.871Z,1.10
2019-05-12T12:38:06.886Z,1.50
2019-05-12T12:39:06.868Z,1.10
2019-05-12T12:40:06.836Z,1.30
2019-05-12T12:41:06.824Z,1.30
2019-05-12T12:42:06.816Z,1.60
2019-05-12T12:43:06.828Z,1.50
2019-05-12T12:44:06.792Z,1.40
2019-05-12T12:45:06.821Z,1.40
2019-05-12T12:46:10.806Z,1.30
2019-05-12T12:47:07.760Z,1.20
2019-05-12T12:48:06.777Z,1.20
2019-05-12T12:49:10.359Z,1.20
2019-05-12T12:50:06.753Z,1.30
2019-05-12T12:51:06.740Z,1.30
2019-05-12T12:52:06.705Z,1.30
2019-05-12T12:53:06.762Z,1.20
2019-05-12T12:54:06.680Z,1.30
2019-05-12T12:55:08.447Z,1.40
2019-05-12T12:56:06.663Z,1.20
2019-05-12T12:57:09.868Z,1.10
2019-05-12T12:58:06.653Z,1.10
2019-05-12T12:59:10.119Z,1.10
2019-05-12T13:00:07.605Z,1.30
2019-05-12T13:01:06.602Z,1.20
2019-05-12T13:02:09.209Z,1.30
2019-05-12T13:03:06.606Z,1.20
2019-05-12T13:04:06.659Z,1.30
2019-05-12T13:05:06.560Z,1.20
2019-05-12T13:06:06.542Z,1.20
2019-05-12T13:07:06.536Z,1.20
2019-05-12T13:08:06.517Z,1.20
2019-05-12T13:09:16.357Z,1.30
2019-05-12T13:10:09.534Z,1.10
2019-05-12T13:11:06.490Z,1.30
2019-05-12T13:12:14.433Z,1.40
2019-05-12T13:13:07.467Z,1.10
2019-05-12T13:14:06.455Z,1.30
2019-05-12T13:15:06.463Z,1.30
2019-05-12T13:16:06.431Z,1.30
2019-05-12T13:17:06.421Z,1.40
2019-05-12T13:18:09.134Z,1.20